普天間飛行場の過去48時間の天気

普天間飛行場 (Futema)

現在時刻: 1/19 20:33 JST (1/19 11:33 UTC) 以下の時間は現地時間です。

過去48時間のMETAR気象情報
時間 風向 風速(m/s) 視程 気温(℃) 湿度(%) 気圧(hPa) 天気現象
19 19:56 東南東 4 10km以上 18.9 70 1019.9
19 18:56 東南東 4 10km以上 18.9 70 1019.5
19 17:56 東南東 4 10km以上 19.4 63 1019.4
19 16:56 南東 4 10km以上 20 61 1019.6
19 15:56 東南東 5 10km以上 21.1 57 1019.5
19 14:56 東南東 4 10km以上 20.6 57 1019.9
19 13:56 南東 5 10km以上 20.6 59 1020.3
19 11:56 4 10km以上 20.6 59 1022
19 10:56 3 10km以上 19.4 61 1022.8
19 09:56 東南東 3 10km以上 18.3 68 1023.4
19 08:56 静穏 0 10km以上 18.3 68 1023
19 07:56 南東 2 10km以上 16.7 67 1022.8
19 05:56 静穏 0 10km以上 16.1 70 1022.1
19 04:56 東北東 2 10km以上 16.7 65 1021.9
ROTM 191056Z 12007KT 10SM CLR 19/13 A3015 RMK AO2 SLP199 T01890133 $
ROTM 190956Z 12008KT 10SM CLR 19/13 A3015 RMK AO2 SLP195 T01890133 $
ROTM 190856Z 12008KT 10SM CLR 19/12 A3014 RMK AO2 SLP194 STNPR29840 T01940122 56006 $
ROTM 190756Z 13008KT 10SM BKN060 20/12 A3015 RMK AO2 SLP196 STNPR29850 T02000122 $
ROTM 190656Z 11009KT 10SM OVC060 21/12 A3015 RMK AO2 SLP195 STNPR29850 T02110122 $
ROTM 190556Z 11008KT 10SM BKN050 21/12 A3016 RMK AO2 SLP199 STNPR29860 T02060117 10217 20178 56020 $
ROTM 190456Z 13009KT 10SM FEW044 BKN055 21/12 A3017 RMK AO2 SLP203 STNPR29870 T02060122 $
ROTM 190256Z 10007KT 10SM OVC055 21/12 A3022 RMK AO2 SLP220 STNPR29925 T02060122 58010 $
ROTM 190156Z 10005KT 10SM OVC048 19/12 A3024 RMK AO2 SLP228 STNPR29940 T01940117 $
ROTM 190056Z AUTO 12005KT 10SM OVC038 18/12 A3026 RMK AO2 SLP234 T01830122 $
ROTM 182356Z AUTO 00000KT 10SM OVC055 18/12 A3025 RMK AO2 SLP230 T01830122 10183 20156 53009 $
ROTM 182256Z AUTO 13003KT 10SM OVC060 17/11 A3024 RMK AO2 SLP228 T01670106 $
ROTM 182056Z AUTO 00000KT 10SM BKN042 OVC050 16/11 A3022 RMK AO2 SLP221 T01610106 55005 $
ROTM 181956Z AUTO 07004KT 10SM SCT042 OVC050 17/10 A3021 RMK AO2 SLP219 T01670100 $